LICJ/PMO METAR and TAF weather

Enter ICAO airport designator
Station Type Date Time Source
LICJ METAR 2019/06/26 19:50 UTC NOAA

LICJ 261950Z 05011KT CAVOK 26/23 Q1018


Station Type Date Time Source
LICJ Decoded METAR 2019/06/26 19:50 UTC NOAA

Palermo / Punta Raisi, Italy (LICJ) 38-11N 013-06E 21M
Jun 26, 2019 - 03:50 PM EDT / 2019.06.26 1950 UTC
Wind: from the NE (050 degrees) at 13 MPH (11 KT):0
Visibility: greater than 7 mile(s):0
Temperature: 78 F (26 C)
Dew Point: 73 F (23 C)
Relative Humidity: 83%
Pressure (altimeter): 30.06 in. Hg (1018 hPa)
ob: LICJ 261950Z 05011KT CAVOK 26/23 Q1018
cycle: 20

Station Type Date Time Source
LICJ TAF 2019/06/26 18:21 UTC NOAA

TAF LICJ 261700Z 2618/2718 08014KT CAVOK
BECMG 2620/2622 VRB05KT
BECMG 2708/2710 05013KT

Example: see airport list